createdAt,value
2018-07-22T00:01:20.214Z,47.70
2018-07-22T00:03:52.094Z,48.00
2018-07-22T00:06:23.521Z,48.40
2018-07-22T00:08:54.933Z,48.40
2018-07-22T00:11:26.292Z,49.00
2018-07-22T00:13:57.550Z,49.40
2018-07-22T00:16:28.871Z,49.40
2018-07-22T00:19:00.055Z,50.00
2018-07-22T00:21:31.451Z,50.70
2018-07-22T00:24:02.789Z,51.70
2018-07-22T00:26:34.092Z,52.40
2018-07-22T00:29:05.697Z,53.10
2018-07-22T00:31:37.202Z,53.60
2018-07-22T00:34:08.630Z,54.40
2018-07-22T00:36:39.868Z,54.60
2018-07-22T00:39:12.579Z,54.80
2018-07-22T00:41:43.852Z,55.10
2018-07-22T00:44:15.094Z,54.60
2018-07-22T00:46:46.351Z,54.20
2018-07-22T00:49:17.767Z,54.30
2018-07-22T00:54:19.158Z,55.00
2018-07-22T00:56:50.396Z,55.20
2018-07-22T00:59:21.793Z,55.70
2018-07-22T01:01:53.072Z,56.50
2018-07-22T01:04:24.213Z,56.80
2018-07-22T01:06:55.460Z,57.10
2018-07-22T01:09:26.833Z,57.40
2018-07-22T01:11:58.041Z,57.60
2018-07-22T01:14:29.226Z,57.80
2018-07-22T01:17:00.391Z,58.20
2018-07-22T01:19:31.417Z,58.70
2018-07-22T01:22:02.689Z,58.20
2018-07-22T01:24:33.978Z,58.40
2018-07-22T01:27:05.369Z,58.00
2018-07-22T01:29:36.588Z,58.10
2018-07-22T01:32:07.837Z,58.30
2018-07-22T01:34:39.298Z,58.70
2018-07-22T01:37:10.757Z,58.50
2018-07-22T01:39:42.022Z,58.60
2018-07-22T01:42:13.350Z,59.30
2018-07-22T01:44:44.617Z,59.50
2018-07-22T01:47:15.811Z,59.30
2018-07-22T01:49:47.731Z,59.60
2018-07-22T01:52:19.424Z,59.50
2018-07-22T01:54:50.742Z,59.50
2018-07-22T01:57:22.561Z,59.40
2018-07-22T01:59:54.174Z,59.20
2018-07-22T02:02:26.545Z,59.50
2018-07-22T02:04:58.938Z,59.80
2018-07-22T02:07:30.405Z,59.90
2018-07-22T02:10:01.659Z,59.80
2018-07-22T02:12:34.703Z,59.80
2018-07-22T02:15:07.506Z,59.70
2018-07-22T02:17:39.359Z,60.30
2018-07-22T02:20:10.743Z,61.00
2018-07-22T02:22:42.237Z,61.60
2018-07-22T02:25:13.472Z,61.50
2018-07-22T02:27:44.727Z,61.60
2018-07-22T02:30:15.949Z,61.30
2018-07-22T02:32:47.234Z,60.70
2018-07-22T02:35:18.416Z,60.80
2018-07-22T02:37:49.599Z,59.70
2018-07-22T02:40:20.813Z,59.10
2018-07-22T02:42:52.043Z,59.00
2018-07-22T02:45:23.326Z,59.10
2018-07-22T02:47:54.639Z,59.00
2018-07-22T02:50:25.854Z,59.10
2018-07-22T02:52:57.247Z,59.10
2018-07-22T02:55:28.486Z,59.30
2018-07-22T02:57:59.933Z,59.60
2018-07-22T03:00:31.172Z,60.00
2018-07-22T03:03:02.226Z,60.40
2018-07-22T03:05:33.523Z,60.40
2018-07-22T03:08:04.793Z,61.00
2018-07-22T03:10:36.101Z,62.30
2018-07-22T03:13:07.656Z,62.40
2018-07-22T03:15:39.111Z,63.80
2018-07-22T03:18:10.450Z,64.50
2018-07-22T03:20:41.663Z,65.40
2018-07-22T03:23:12.958Z,66.60
2018-07-22T03:25:44.358Z,66.70
2018-07-22T03:28:15.565Z,67.30
2018-07-22T03:30:47.293Z,68.00
2018-07-22T03:33:18.837Z,68.10
2018-07-22T03:35:50.077Z,67.30
2018-07-22T03:38:21.430Z,67.60
2018-07-22T03:40:53.909Z,67.60
2018-07-22T03:43:25.074Z,67.60
2018-07-22T03:45:56.278Z,67.60
2018-07-22T03:48:27.335Z,67.60
2018-07-22T03:50:58.457Z,67.70
2018-07-22T03:53:29.488Z,67.80
2018-07-22T03:56:00.709Z,68.40
2018-07-22T03:58:31.798Z,68.90
2018-07-22T04:01:02.921Z,70.00
2018-07-22T04:03:34.285Z,71.00
2018-07-22T04:06:05.622Z,71.30
2018-07-22T04:08:36.979Z,71.60
2018-07-22T04:11:08.045Z,71.50
2018-07-22T04:13:39.294Z,71.40
2018-07-22T04:16:10.601Z,71.10
2018-07-22T04:18:46.840Z,71.40
2018-07-22T04:21:18.241Z,71.90
2018-07-22T04:23:49.900Z,72.70
2018-07-22T04:26:22.121Z,72.80
2018-07-22T04:28:53.250Z,73.00
2018-07-22T04:31:24.349Z,72.50
2018-07-22T04:33:55.426Z,72.40
2018-07-22T04:36:26.680Z,72.80
2018-07-22T04:38:57.960Z,73.20
2018-07-22T04:41:29.353Z,74.90
2018-07-22T04:44:00.544Z,76.60
2018-07-22T04:46:31.847Z,77.80
2018-07-22T04:49:03.206Z,80.20
2018-07-22T04:51:34.644Z,85.00
2018-07-22T04:54:06.038Z,86.80
2018-07-22T04:56:37.386Z,88.10
2018-07-22T04:59:08.925Z,85.20
2018-07-22T05:01:40.106Z,87.10
2018-07-22T05:04:11.537Z,85.20
2018-07-22T05:06:43.003Z,85.10
2018-07-22T05:09:14.845Z,85.40
2018-07-22T05:11:46.010Z,87.50
2018-07-22T05:14:17.554Z,90.40
2018-07-22T05:16:49.015Z,90.80
2018-07-22T05:19:21.560Z,91.70
2018-07-22T05:21:52.856Z,92.00
2018-07-22T05:24:24.140Z,93.60
2018-07-22T05:26:55.436Z,95.60
2018-07-22T05:29:26.857Z,97.50
2018-07-22T05:31:58.067Z,98.60
2018-07-22T05:34:29.578Z,99.90
2018-07-22T05:37:00.953Z,99.90
2018-07-22T05:39:32.385Z,99.90
2018-07-22T05:42:03.860Z,99.90
2018-07-22T05:44:35.095Z,99.90
2018-07-22T05:47:06.461Z,99.90
2018-07-22T05:49:37.765Z,99.90
2018-07-22T05:52:09.398Z,99.90
2018-07-22T05:54:40.854Z,99.90
2018-07-22T05:57:12.048Z,99.90
2018-07-22T05:59:43.428Z,99.90
2018-07-22T06:02:14.882Z,99.90
2018-07-22T06:04:46.177Z,99.90
2018-07-22T06:07:17.570Z,99.90
2018-07-22T06:09:49.034Z,99.90
2018-07-22T06:12:20.408Z,99.90
2018-07-22T06:14:51.862Z,99.90
2018-07-22T06:17:23.485Z,99.90
2018-07-22T06:19:54.727Z,99.90
2018-07-22T06:22:26.267Z,99.90
2018-07-22T06:24:57.621Z,99.90
2018-07-22T06:27:29.005Z,99.90
2018-07-22T06:30:00.208Z,99.90
2018-07-22T06:32:31.597Z,99.90
2018-07-22T06:35:02.980Z,99.90
2018-07-22T06:37:34.375Z,99.90
2018-07-22T06:40:05.797Z,99.90
2018-07-22T06:42:37.170Z,99.90
2018-07-22T06:45:08.502Z,99.90
2018-07-22T06:47:39.960Z,99.90
2018-07-22T06:50:11.434Z,99.90
2018-07-22T06:52:42.688Z,99.90
2018-07-22T06:55:14.003Z,99.90
2018-07-22T06:57:45.449Z,99.90
2018-07-22T07:00:16.904Z,99.90
2018-07-22T07:02:48.232Z,99.90
2018-07-22T07:05:19.437Z,99.90
2018-07-22T07:07:50.964Z,99.90
2018-07-22T07:10:22.644Z,99.90
2018-07-22T07:12:54.376Z,99.90
2018-07-22T07:15:26.039Z,99.90
2018-07-22T07:17:57.546Z,99.90
2018-07-22T07:20:28.921Z,99.90
2018-07-22T07:23:00.196Z,99.90
2018-07-22T07:25:31.801Z,99.90
2018-07-22T07:28:03.203Z,99.90
2018-07-22T07:30:34.559Z,99.90
2018-07-22T07:33:06.136Z,99.90
2018-07-22T07:35:37.460Z,99.90
2018-07-22T07:38:09.015Z,99.90
2018-07-22T07:40:40.485Z,99.90
2018-07-22T07:43:11.794Z,99.90
2018-07-22T07:45:43.198Z,99.90
2018-07-22T07:48:14.613Z,99.90
2018-07-22T07:50:46.683Z,99.90
2018-07-22T07:53:18.046Z,99.90
2018-07-22T07:55:49.356Z,99.90
2018-07-22T07:58:20.827Z,99.90
2018-07-22T08:00:52.269Z,99.90
2018-07-22T08:03:23.502Z,99.90
2018-07-22T08:05:54.719Z,99.90
2018-07-22T08:08:26.174Z,99.90
2018-07-22T08:10:57.445Z,99.90
2018-07-22T08:13:28.606Z,99.90
2018-07-22T08:15:59.904Z,99.90
2018-07-22T08:18:31.316Z,99.90
2018-07-22T08:21:02.597Z,99.90
2018-07-22T08:23:33.937Z,99.90
2018-07-22T08:26:05.163Z,99.90
2018-07-22T08:28:46.421Z,99.90
2018-07-22T08:31:17.605Z,99.90
2018-07-22T08:33:48.801Z,99.90
2018-07-22T08:36:19.996Z,99.90
2018-07-22T08:38:51.316Z,99.90
2018-07-22T08:41:22.717Z,99.90
2018-07-22T08:43:54.063Z,99.90
2018-07-22T08:46:25.258Z,99.90
2018-07-22T08:48:56.575Z,99.90
2018-07-22T08:51:27.927Z,99.90
2018-07-22T08:53:59.129Z,99.90
2018-07-22T08:56:30.673Z,99.90
2018-07-22T08:59:02.054Z,99.90
2018-07-22T09:01:33.421Z,99.90
2018-07-22T09:04:04.951Z,99.90
2018-07-22T09:06:36.066Z,99.90
2018-07-22T09:09:11.031Z,99.90
2018-07-22T09:11:42.430Z,99.90
2018-07-22T09:14:13.760Z,99.90
2018-07-22T09:16:44.936Z,99.90
2018-07-22T09:19:16.317Z,99.90
2018-07-22T09:21:47.512Z,99.90
2018-07-22T09:24:18.550Z,99.90
2018-07-22T09:26:49.663Z,99.90
2018-07-22T09:29:21.103Z,99.90
2018-07-22T09:31:52.507Z,99.90
2018-07-22T09:34:23.779Z,99.90
2018-07-22T09:36:55.200Z,99.90
2018-07-22T09:39:26.539Z,99.90
2018-07-22T09:41:57.875Z,99.70
2018-07-22T09:44:29.164Z,99.90
2018-07-22T09:47:00.295Z,99.80
2018-07-22T09:49:31.725Z,99.80
2018-07-22T09:52:03.070Z,99.40
2018-07-22T09:54:34.148Z,99.10
2018-07-22T09:57:05.217Z,99.00
2018-07-22T10:02:06.633Z,98.60
2018-07-22T10:04:37.967Z,98.40
2018-07-22T10:07:10.198Z,98.60
2018-07-22T10:09:41.343Z,98.30
2018-07-22T10:12:12.756Z,98.10
2018-07-22T10:14:44.119Z,98.30
2018-07-22T10:17:15.677Z,97.70
2018-07-22T10:19:46.977Z,97.80
2018-07-22T10:22:18.094Z,97.50
2018-07-22T10:24:49.437Z,97.70
2018-07-22T10:27:20.736Z,97.50
2018-07-22T10:29:51.896Z,97.50
2018-07-22T10:32:23.251Z,97.20
2018-07-22T10:34:54.462Z,96.80
2018-07-22T10:37:25.816Z,96.40
2018-07-22T10:39:57.161Z,96.30
2018-07-22T10:42:28.465Z,96.60
2018-07-22T10:44:59.692Z,96.40
2018-07-22T10:47:31.132Z,96.20
2018-07-22T10:50:02.621Z,96.30
2018-07-22T10:52:33.973Z,96.40
2018-07-22T10:55:05.240Z,95.80
2018-07-22T10:57:36.661Z,95.70
2018-07-22T11:00:08.572Z,95.60
2018-07-22T11:02:39.759Z,94.80
2018-07-22T11:05:11.381Z,94.00
2018-07-22T11:07:42.653Z,93.90
2018-07-22T11:10:13.768Z,92.80
2018-07-22T11:12:45.116Z,91.80
2018-07-22T11:15:16.230Z,90.40
2018-07-22T11:17:47.378Z,90.70
2018-07-22T11:20:18.682Z,87.60
2018-07-22T11:22:50.077Z,85.00
2018-07-22T11:25:21.382Z,83.30
2018-07-22T11:27:52.670Z,83.50
2018-07-22T11:30:23.990Z,81.50
2018-07-22T11:32:55.470Z,81.90
2018-07-22T11:35:26.790Z,80.00
2018-07-22T11:37:58.165Z,76.80
2018-07-22T11:40:29.558Z,74.50
2018-07-22T11:43:00.977Z,72.90
2018-07-22T11:45:32.268Z,72.30
2018-07-22T11:48:03.613Z,71.50
2018-07-22T11:50:35.637Z,71.50
2018-07-22T11:53:07.290Z,71.80
2018-07-22T11:55:38.941Z,70.40
2018-07-22T11:58:10.357Z,70.90
2018-07-22T12:00:42.146Z,72.30
2018-07-22T12:03:13.382Z,72.50
2018-07-22T12:05:44.661Z,72.60
2018-07-22T12:08:15.881Z,72.80
2018-07-22T12:10:47.066Z,72.60
2018-07-22T12:13:18.263Z,72.20
2018-07-22T12:15:49.461Z,72.10
2018-07-22T12:18:20.903Z,73.00
2018-07-22T12:20:52.024Z,74.50
2018-07-22T12:23:23.378Z,75.90
2018-07-22T12:25:54.693Z,78.20
2018-07-22T12:28:25.764Z,80.90
2018-07-22T12:30:57.035Z,83.50
2018-07-22T12:33:28.362Z,86.90
2018-07-22T12:35:59.621Z,90.10
2018-07-22T12:38:30.826Z,91.60
2018-07-22T12:41:02.118Z,93.00
2018-07-22T12:43:33.431Z,94.70
2018-07-22T12:46:04.777Z,95.50
2018-07-22T12:48:36.117Z,95.70
2018-07-22T12:51:07.593Z,96.80
2018-07-22T12:53:38.836Z,97.90
2018-07-22T12:56:10.065Z,97.60
2018-07-22T12:58:42.231Z,98.20
2018-07-22T13:01:13.665Z,98.80
2018-07-22T13:03:45.233Z,99.30
2018-07-22T13:06:16.715Z,99.90
2018-07-22T13:08:48.186Z,99.90
2018-07-22T13:11:19.384Z,99.90
2018-07-22T13:13:50.670Z,99.90
2018-07-22T13:16:21.876Z,99.90
2018-07-22T13:18:53.310Z,99.90
2018-07-22T13:21:24.585Z,99.70
2018-07-22T13:23:56.009Z,99.90
2018-07-22T13:26:27.286Z,99.90
2018-07-22T13:28:58.681Z,99.90
2018-07-22T13:31:29.815Z,99.90
2018-07-22T13:34:01.183Z,99.90
2018-07-22T13:36:32.604Z,99.90
2018-07-22T13:39:04.217Z,99.90
2018-07-22T13:41:35.604Z,99.90
2018-07-22T13:46:37.782Z,99.40
2018-07-22T13:49:08.902Z,99.90
2018-07-22T13:51:40.311Z,99.60
2018-07-22T13:54:11.625Z,99.90
2018-07-22T13:56:42.874Z,99.90
2018-07-22T13:59:14.083Z,99.90
2018-07-22T14:01:45.718Z,99.90
2018-07-22T14:04:17.064Z,99.70
2018-07-22T14:06:48.164Z,99.90
2018-07-22T14:09:19.527Z,99.90
2018-07-22T14:11:50.754Z,99.90
2018-07-22T14:14:22.217Z,99.90
2018-07-22T14:16:53.262Z,99.90
2018-07-22T14:19:24.440Z,99.90
2018-07-22T14:21:55.727Z,99.90
2018-07-22T14:24:26.861Z,99.90
2018-07-22T14:26:58.129Z,99.90
2018-07-22T14:29:29.381Z,99.90
2018-07-22T14:32:00.554Z,99.90
2018-07-22T14:34:31.736Z,99.90
2018-07-22T14:37:03.008Z,99.90
2018-07-22T14:39:34.392Z,99.30
2018-07-22T14:42:05.472Z,99.90
2018-07-22T14:44:36.609Z,98.30
2018-07-22T14:47:08.210Z,98.40
2018-07-22T14:49:39.228Z,99.10
2018-07-22T14:52:10.550Z,97.70
2018-07-22T14:54:41.746Z,96.70
2018-07-22T14:57:12.944Z,96.30
2018-07-22T14:59:44.233Z,95.70
2018-07-22T15:02:15.354Z,96.50
2018-07-22T15:04:46.745Z,98.00
2018-07-22T15:07:17.880Z,98.00
2018-07-22T15:09:49.022Z,97.90
2018-07-22T15:12:20.284Z,98.60
2018-07-22T15:14:51.484Z,98.10
2018-07-22T15:17:22.722Z,98.20
2018-07-22T15:19:53.897Z,97.40
2018-07-22T15:22:25.178Z,97.50
2018-07-22T15:24:56.305Z,97.80
2018-07-22T15:27:27.459Z,96.90
2018-07-22T15:29:58.839Z,96.80
2018-07-22T15:32:30.134Z,98.50
2018-07-22T15:35:01.251Z,99.90
2018-07-22T15:37:32.589Z,99.90
2018-07-22T15:40:03.898Z,99.90
2018-07-22T15:42:35.104Z,99.90
2018-07-22T15:45:06.599Z,99.90
2018-07-22T15:47:37.862Z,99.90
2018-07-22T15:50:09.206Z,99.90
2018-07-22T15:52:40.443Z,99.90
2018-07-22T15:55:11.575Z,99.90
2018-07-22T15:57:42.738Z,99.90
2018-07-22T16:00:13.943Z,99.90
2018-07-22T16:02:45.104Z,99.90
2018-07-22T16:05:16.421Z,99.90
2018-07-22T16:07:48.250Z,99.90
2018-07-22T16:10:19.465Z,99.90
2018-07-22T16:12:50.679Z,99.90
2018-07-22T16:15:21.722Z,99.90
2018-07-22T16:17:52.869Z,99.90
2018-07-22T16:20:24.129Z,99.90
2018-07-22T16:22:55.472Z,99.90
2018-07-22T16:25:26.717Z,99.90
2018-07-22T16:27:57.942Z,99.90
2018-07-22T16:30:29.280Z,99.90
2018-07-22T16:33:00.552Z,99.90
2018-07-22T16:35:31.874Z,99.90
2018-07-22T16:38:03.084Z,99.90
2018-07-22T16:40:34.265Z,99.90
2018-07-22T16:43:05.319Z,99.90
2018-07-22T16:45:36.434Z,99.90
2018-07-22T16:48:07.685Z,99.90
2018-07-22T16:50:38.910Z,99.90
2018-07-22T16:53:10.264Z,99.90
2018-07-22T16:55:41.882Z,99.90
2018-07-22T16:58:13.132Z,99.90
2018-07-22T17:00:44.525Z,99.90
2018-07-22T17:03:15.801Z,99.90
2018-07-22T17:05:46.952Z,99.90
2018-07-22T17:08:18.291Z,99.90
2018-07-22T17:10:49.739Z,99.90
2018-07-22T17:13:20.992Z,99.70
2018-07-22T17:15:52.246Z,99.60
2018-07-22T17:18:23.524Z,98.40
2018-07-22T17:20:54.837Z,99.70
2018-07-22T17:23:26.111Z,99.10
2018-07-22T17:25:57.550Z,98.40
2018-07-22T17:28:28.932Z,96.10
2018-07-22T17:31:00.370Z,95.70
2018-07-22T17:33:31.796Z,96.10
2018-07-22T17:36:03.338Z,96.20
2018-07-22T17:38:34.475Z,96.00
2018-07-22T17:41:05.700Z,96.00
2018-07-22T17:43:37.168Z,93.50
2018-07-22T17:46:08.537Z,93.10
2018-07-22T17:48:39.743Z,91.40
2018-07-22T17:51:10.762Z,91.20
2018-07-22T17:53:41.834Z,92.10
2018-07-22T17:56:13.049Z,92.30
2018-07-22T17:58:44.216Z,93.10
2018-07-22T18:01:15.518Z,90.60
2018-07-22T18:03:46.886Z,91.50
2018-07-22T18:06:18.162Z,91.60
2018-07-22T18:08:49.530Z,90.80
2018-07-22T18:11:21.108Z,90.40
2018-07-22T18:13:52.505Z,90.30
2018-07-22T18:16:23.640Z,91.30
2018-07-22T18:18:54.969Z,91.30
2018-07-22T18:21:26.246Z,91.10
2018-07-22T18:23:57.376Z,88.30
2018-07-22T18:26:28.815Z,88.00
2018-07-22T18:29:00.050Z,90.00
2018-07-22T18:31:31.457Z,88.40
2018-07-22T18:34:02.786Z,87.70
2018-07-22T18:36:34.388Z,89.00
2018-07-22T18:39:07.252Z,88.00
2018-07-22T18:41:38.482Z,88.30
2018-07-22T18:44:09.989Z,88.40
2018-07-22T18:46:41.320Z,84.40
2018-07-22T18:49:12.623Z,83.10
2018-07-22T18:51:43.891Z,80.60
2018-07-22T18:54:15.257Z,83.70
2018-07-22T18:56:46.533Z,81.50
2018-07-22T18:59:17.772Z,79.50
2018-07-22T19:01:49.046Z,79.40
2018-07-22T19:04:20.445Z,81.90
2018-07-22T19:06:51.852Z,83.00
2018-07-22T19:09:23.404Z,83.30
2018-07-22T19:11:54.726Z,80.40
2018-07-22T19:14:26.102Z,80.40
2018-07-22T19:16:57.486Z,80.90
2018-07-22T19:19:29.035Z,82.00
2018-07-22T19:22:00.418Z,81.80
2018-07-22T19:27:02.369Z,82.10
2018-07-22T19:29:33.994Z,84.00
2018-07-22T19:32:05.587Z,83.40
2018-07-22T19:34:37.272Z,84.60
2018-07-22T19:37:08.746Z,83.30
2018-07-22T19:39:40.306Z,84.60
2018-07-22T19:42:11.824Z,85.10
2018-07-22T19:44:43.256Z,84.00
2018-07-22T19:47:15.002Z,85.90
2018-07-22T19:49:46.259Z,85.50
2018-07-22T19:52:17.656Z,85.40
2018-07-22T19:54:49.269Z,85.90
2018-07-22T19:57:20.697Z,85.60
2018-07-22T19:59:52.726Z,84.00
2018-07-22T20:02:24.085Z,82.90
2018-07-22T20:04:55.278Z,83.90
2018-07-22T20:07:26.556Z,84.00
2018-07-22T20:09:58.066Z,83.60
2018-07-22T20:12:29.708Z,84.60
2018-07-22T20:15:00.993Z,85.80
2018-07-22T20:17:32.349Z,84.80
2018-07-22T20:20:03.713Z,86.20
2018-07-22T20:22:35.025Z,87.80
2018-07-22T20:25:07.939Z,88.10
2018-07-22T20:27:39.414Z,87.00
2018-07-22T20:30:11.070Z,86.70
2018-07-22T20:32:43.015Z,84.30
2018-07-22T20:35:14.224Z,82.00
2018-07-22T20:37:45.498Z,80.40
2018-07-22T20:40:16.743Z,80.60
2018-07-22T20:42:47.926Z,78.90
2018-07-22T20:45:19.494Z,78.40
2018-07-22T20:47:50.846Z,77.70
2018-07-22T20:50:22.196Z,79.00
2018-07-22T20:52:53.429Z,79.70
2018-07-22T20:55:24.796Z,80.40
2018-07-22T20:57:55.878Z,80.40
2018-07-22T21:00:27.068Z,80.60
2018-07-22T21:02:58.287Z,81.20
2018-07-22T21:05:29.367Z,81.60
2018-07-22T21:08:00.346Z,82.20
2018-07-22T21:10:31.854Z,81.60
2018-07-22T21:13:21.645Z,81.80
2018-07-22T21:15:52.858Z,83.80
2018-07-22T21:18:24.094Z,82.30
2018-07-22T21:20:55.338Z,79.30
2018-07-22T21:23:26.425Z,76.90
2018-07-22T21:25:57.732Z,77.80
2018-07-22T21:28:28.799Z,76.50
2018-07-22T21:31:03.676Z,76.60
2018-07-22T21:33:34.672Z,78.10
2018-07-22T21:36:05.861Z,77.80
2018-07-22T21:38:37.110Z,77.70
2018-07-22T21:41:08.313Z,76.20
2018-07-22T21:43:39.982Z,76.70
2018-07-22T21:46:11.280Z,77.50
2018-07-22T21:48:42.795Z,78.60
2018-07-22T21:51:13.916Z,78.90
2018-07-22T21:53:44.953Z,78.10
2018-07-22T21:56:16.061Z,78.50
2018-07-22T21:58:47.285Z,79.30
2018-07-22T22:03:48.842Z,79.40
2018-07-22T22:06:19.994Z,79.50
2018-07-22T22:08:51.264Z,79.30
2018-07-22T22:11:22.490Z,78.20
2018-07-22T22:13:53.751Z,80.40
2018-07-22T22:16:25.109Z,83.30
2018-07-22T22:18:56.237Z,83.90
2018-07-22T22:21:27.376Z,82.70
2018-07-22T22:23:58.615Z,79.30
2018-07-22T22:26:30.048Z,78.30
2018-07-22T22:29:01.365Z,79.40
2018-07-22T22:31:32.803Z,78.80
2018-07-22T22:34:04.110Z,79.80
2018-07-22T22:36:35.696Z,80.00
2018-07-22T22:39:09.862Z,80.50
2018-07-22T22:41:41.391Z,81.70
2018-07-22T22:44:13.033Z,79.40
2018-07-22T22:46:44.253Z,78.40
2018-07-22T22:49:15.709Z,78.50
2018-07-22T22:51:46.944Z,79.10
2018-07-22T22:54:18.203Z,77.50
2018-07-22T22:56:49.316Z,78.70
2018-07-22T22:59:22.934Z,79.00
2018-07-22T23:01:54.561Z,79.50
2018-07-22T23:04:25.989Z,79.90
2018-07-22T23:06:57.181Z,81.30
2018-07-22T23:09:28.528Z,82.30
2018-07-22T23:11:59.833Z,82.10
2018-07-22T23:14:30.927Z,83.10
2018-07-22T23:17:02.357Z,83.40
2018-07-22T23:19:33.684Z,82.20
2018-07-22T23:22:06.182Z,82.60
2018-07-22T23:24:37.585Z,83.20
2018-07-22T23:27:08.760Z,83.20
2018-07-22T23:29:39.920Z,84.20
2018-07-22T23:32:11.434Z,85.20
2018-07-22T23:34:42.494Z,85.80
2018-07-22T23:37:13.785Z,86.20
2018-07-22T23:39:45.406Z,86.20
2018-07-22T23:42:16.846Z,86.80
2018-07-22T23:44:48.046Z,88.00
2018-07-22T23:47:19.329Z,88.10
2018-07-22T23:49:50.588Z,88.30
2018-07-22T23:52:21.783Z,87.80
2018-07-22T23:54:53.029Z,88.00
2018-07-22T23:57:24.277Z,88.80
2018-07-22T23:59:55.499Z,89.00
